sensor_id;sensor_type;location;lat;lon;timestamp;pressure;altitude;pressure_sealevel;temperature;humidity
45523;BME280;31254;51.680;5.394;2023-03-13T00:01:58;100265.66;;;10.06;87.43
45523;BME280;31254;51.680;5.394;2023-03-13T00:04:26;100271.00;;;10.16;87.17
45523;BME280;31254;51.680;5.394;2023-03-13T00:06:53;100255.50;;;10.16;87.38
45523;BME280;31254;51.680;5.394;2023-03-13T00:09:19;100251.38;;;10.12;87.46
45523;BME280;31254;51.680;5.394;2023-03-13T00:11:48;100230.72;;;10.01;87.56
45523;BME280;31254;51.680;5.394;2023-03-13T00:14:14;100249.34;;;10.14;87.86
45523;BME280;31254;51.680;5.394;2023-03-13T00:16:41;100224.06;;;10.04;87.88
45523;BME280;31254;51.680;5.394;2023-03-13T00:19:08;100043.63;;;8.89;87.71
45523;BME280;31254;51.680;5.394;2023-03-13T00:21:37;100220.19;;;10.06;88.04
45523;BME280;31254;51.680;5.394;2023-03-13T00:24:08;100228.41;;;10.15;88.53
45523;BME280;31254;51.680;5.394;2023-03-13T00:26:35;100214.78;;;10.15;88.44
45523;BME280;31254;51.680;5.394;2023-03-13T00:29:02;100217.50;;;10.15;88.89
45523;BME280;31254;51.680;5.394;2023-03-13T00:31:31;100207.06;;;10.10;88.82
45523;BME280;31254;51.680;5.394;2023-03-13T00:34:00;100206.75;;;10.13;89.34
45523;BME280;31254;51.680;5.394;2023-03-13T00:36:29;100205.03;;;10.12;89.05
45523;BME280;31254;51.680;5.394;2023-03-13T00:38:59;100189.72;;;10.11;89.59
45523;BME280;31254;51.680;5.394;2023-03-13T00:41:28;100177.41;;;10.07;89.88
45523;BME280;31254;51.680;5.394;2023-03-13T00:43:55;100178.28;;;10.07;89.89
45523;BME280;31254;51.680;5.394;2023-03-13T00:46:24;100168.56;;;10.05;90.14
45523;BME280;31254;51.680;5.394;2023-03-13T00:48:51;99966.69;;;8.70;89.83
45523;BME280;31254;51.680;5.394;2023-03-13T00:51:19;100154.56;;;10.00;90.04
45523;BME280;31254;51.680;5.394;2023-03-13T00:53:47;100159.38;;;10.06;90.60
45523;BME280;31254;51.680;5.394;2023-03-13T00:56:15;100161.22;;;10.05;90.96
45523;BME280;31254;51.680;5.394;2023-03-13T00:58:46;100126.81;;;9.96;90.86
45523;BME280;31254;51.680;5.394;2023-03-13T01:01:24;100130.41;;;10.05;91.13
45523;BME280;31254;51.680;5.394;2023-03-13T01:03:55;100127.69;;;10.05;90.79
45523;BME280;31254;51.680;5.394;2023-03-13T01:06:25;100116.09;;;10.03;91.55
45523;BME280;31254;51.680;5.394;2023-03-13T01:08:53;100122.22;;;10.05;91.35
45523;BME280;31254;51.680;5.394;2023-03-13T01:11:23;100114.53;;;10.00;92.01
45523;BME280;31254;51.680;5.394;2023-03-13T01:13:56;100066.59;;;9.81;92.01
45523;BME280;31254;51.680;5.394;2023-03-13T01:16:27;100093.59;;;10.01;92.16
45523;BME280;31254;51.680;5.394;2023-03-13T01:18:57;100090.69;;;10.02;92.25
45523;BME280;31254;51.680;5.394;2023-03-13T01:21:25;100080.69;;;10.03;92.09
45523;BME280;31254;51.680;5.394;2023-03-13T01:23:54;100056.28;;;9.93;92.87
45523;BME280;31254;51.680;5.394;2023-03-13T01:26:21;100063.78;;;9.99;92.91
45523;BME280;31254;51.680;5.394;2023-03-13T01:28:48;100067.72;;;10.05;93.08
45523;BME280;31254;51.680;5.394;2023-03-13T01:31:24;100072.16;;;10.06;93.29
45523;BME280;31254;51.680;5.394;2023-03-13T01:33:54;100067.41;;;10.08;93.30
45523;BME280;31254;51.680;5.394;2023-03-13T01:36:25;100036.38;;;10.01;93.24
45523;BME280;31254;51.680;5.394;2023-03-13T01:38:56;99993.91;;;9.74;93.64
45523;BME280;31254;51.680;5.394;2023-03-13T01:41:24;99836.59;;;8.92;93.48
45523;BME280;31254;51.680;5.394;2023-03-13T01:43:50;100008.44;;;9.99;93.91
45523;BME280;31254;51.680;5.394;2023-03-13T01:46:18;100021.94;;;10.17;94.01
45523;BME280;31254;51.680;5.394;2023-03-13T01:49:04;100024.50;;;10.18;94.13
45523;BME280;31254;51.680;5.394;2023-03-13T01:51:36;100020.59;;;10.21;94.27
45523;BME280;31254;51.680;5.394;2023-03-13T01:56:53;100009.34;;;10.24;94.54
45523;BME280;31254;51.680;5.394;2023-03-13T01:59:27;99985.50;;;10.18;94.31
45523;BME280;31254;51.680;5.394;2023-03-13T02:01:58;99996.22;;;10.28;94.55
45523;BME280;31254;51.680;5.394;2023-03-13T02:04:29;99949.00;;;10.11;94.70
45523;BME280;31254;51.680;5.394;2023-03-13T02:07:00;99966.91;;;10.30;94.92
45523;BME280;31254;51.680;5.394;2023-03-13T02:09:30;99937.59;;;10.23;94.66
45523;BME280;31254;51.680;5.394;2023-03-13T02:12:09;99922.63;;;10.11;95.06
45523;BME280;31254;51.680;5.394;2023-03-13T02:14:40;99945.84;;;10.40;94.70
45523;BME280;31254;51.680;5.394;2023-03-13T02:17:09;99944.28;;;10.54;94.72
45523;BME280;31254;51.680;5.394;2023-03-13T02:19:48;99946.69;;;10.57;94.99
45523;BME280;31254;51.680;5.394;2023-03-13T02:27:27;99910.56;;;10.55;95.57
45523;BME280;31254;51.680;5.394;2023-03-13T02:29:54;99916.69;;;10.57;95.75
45523;BME280;31254;51.680;5.394;2023-03-13T02:32:22;99879.69;;;10.46;96.01
45523;BME280;31254;51.680;5.394;2023-03-13T02:34:52;99889.22;;;10.58;95.89
45523;BME280;31254;51.680;5.394;2023-03-13T02:37:20;99889.06;;;10.60;95.84
45523;BME280;31254;51.680;5.394;2023-03-13T02:39:50;99905.06;;;10.71;96.22
45523;BME280;31254;51.680;5.394;2023-03-13T02:42:19;99906.94;;;10.71;96.27
45523;BME280;31254;51.680;5.394;2023-03-13T02:44:47;99769.88;;;9.96;95.86
45523;BME280;31254;51.680;5.394;2023-03-13T02:47:21;99880.00;;;10.68;96.44
45523;BME280;31254;51.680;5.394;2023-03-13T02:49:48;99889.69;;;10.78;95.99
45523;BME280;31254;51.680;5.394;2023-03-13T02:52:26;99904.53;;;10.84;96.59
45523;BME280;31254;51.680;5.394;2023-03-13T02:55:15;99880.84;;;10.76;96.90
45523;BME280;31254;51.680;5.394;2023-03-13T02:57:44;99893.09;;;10.89;96.75
45523;BME280;31254;51.680;5.394;2023-03-13T03:00:11;99897.84;;;10.95;96.89
45523;BME280;31254;51.680;5.394;2023-03-13T03:02:38;99894.91;;;11.05;96.52
45523;BME280;31254;51.680;5.394;2023-03-13T03:05:05;99896.78;;;11.04;96.73
45523;BME280;31254;51.680;5.394;2023-03-13T03:07:34;99901.38;;;11.04;96.98
45523;BME280;31254;51.680;5.394;2023-03-13T03:10:01;99873.94;;;11.05;97.08
45523;BME280;31254;51.680;5.394;2023-03-13T03:12:27;99891.13;;;11.06;97.18
45523;BME280;31254;51.680;5.394;2023-03-13T03:14:56;99881.28;;;10.96;97.22
45523;BME280;31254;51.680;5.394;2023-03-13T03:17:23;99818.66;;;10.64;97.30
45523;BME280;31254;51.680;5.394;2023-03-13T03:19:50;99886.34;;;11.16;97.50
45523;BME280;31254;51.680;5.394;2023-03-13T03:22:16;99883.63;;;11.16;97.96
45523;BME280;31254;51.680;5.394;2023-03-13T03:24:46;99879.66;;;11.19;97.72
45523;BME280;31254;51.680;5.394;2023-03-13T03:27:15;99888.34;;;11.22;98.03
45523;BME280;31254;51.680;5.394;2023-03-13T03:29:43;99879.78;;;11.25;98.15
45523;BME280;31254;51.680;5.394;2023-03-13T03:32:10;99863.28;;;11.19;98.10
45523;BME280;31254;51.680;5.394;2023-03-13T03:34:39;99877.06;;;11.25;98.40
45523;BME280;31254;51.680;5.394;2023-03-13T03:37:10;99883.53;;;11.32;98.42
45523;BME280;31254;51.680;5.394;2023-03-13T03:39:37;99886.94;;;11.34;98.25
45523;BME280;31254;51.680;5.394;2023-03-13T03:42:06;99883.00;;;11.37;98.53
45523;BME280;31254;51.680;5.394;2023-03-13T03:44:34;99880.94;;;11.39;98.80
45523;BME280;31254;51.680;5.394;2023-03-13T03:47:01;99884.84;;;11.37;99.10
45523;BME280;31254;51.680;5.394;2023-03-13T03:49:28;99886.88;;;11.43;98.87
45523;BME280;31254;51.680;5.394;2023-03-13T03:51:57;99895.56;;;11.46;99.02
45523;BME280;31254;51.680;5.394;2023-03-13T03:54:26;99878.16;;;11.47;99.20
45523;BME280;31254;51.680;5.394;2023-03-13T03:56:52;99864.72;;;11.38;99.32
45523;BME280;31254;51.680;5.394;2023-03-13T03:59:19;99875.25;;;11.49;99.48
45523;BME280;31254;51.680;5.394;2023-03-13T04:01:46;99867.06;;;11.49;99.50
45523;BME280;31254;51.680;5.394;2023-03-13T04:04:13;99863.84;;;11.45;99.79
45523;BME280;31254;51.680;5.394;2023-03-13T04:06:39;99865.34;;;11.48;100.00
45523;BME280;31254;51.680;5.394;2023-03-13T04:09:06;99861.91;;;11.54;99.85
45523;BME280;31254;51.680;5.394;2023-03-13T04:11:33;99862.75;;;11.55;100.00
45523;BME280;31254;51.680;5.394;2023-03-13T04:13:59;99870.41;;;11.59;100.00
45523;BME280;31254;51.680;5.394;2023-03-13T04:16:26;99850.97;;;11.54;100.00
45523;BME280;31254;51.680;5.394;2023-03-13T04:18:53;99833.97;;;11.44;100.00
45523;BME280;31254;51.680;5.394;2023-03-13T04:21:19;99854.13;;;11.66;100.00
45523;BME280;31254;51.680;5.394;2023-03-13T04:23:46;99806.97;;;11.49;100.00
45523;BME280;31254;51.680;5.394;2023-03-13T04:26:16;99808.81;;;11.57;100.00
45523;BME280;31254;51.680;5.394;2023-03-13T04:28:44;99821.34;;;11.66;100.00
45523;BME280;31254;51.680;5.394;2023-03-13T04:31:11;99791.72;;;11.55;100.00
45523;BME280;31254;51.680;5.394;2023-03-13T04:33:38;99801.94;;;11.61;100.00
45523;BME280;31254;51.680;5.394;2023-03-13T04:36:05;99791.00;;;11.61;100.00
45523;BME280;31254;51.680;5.394;2023-03-13T04:38:32;99814.44;;;11.78;100.00
45523;BME280;31254;51.680;5.394;2023-03-13T04:41:03;99808.59;;;11.81;100.00
45523;BME280;31254;51.680;5.394;2023-03-13T04:43:30;99809.44;;;11.82;100.00
45523;BME280;31254;51.680;5.394;2023-03-13T04:45:57;99779.66;;;11.72;100.00
45523;BME280;31254;51.680;5.394;2023-03-13T04:48:24;99784.75;;;11.75;100.00
45523;BME280;31254;51.680;5.394;2023-03-13T04:50:55;99801.91;;;11.84;100.00
45523;BME280;31254;51.680;5.394;2023-03-13T04:53:22;99803.91;;;11.90;100.00
45523;BME280;31254;51.680;5.394;2023-03-13T04:55:49;99799.16;;;11.92;100.00
45523;BME280;31254;51.680;5.394;2023-03-13T04:58:16;99799.63;;;11.96;100.00
45523;BME280;31254;51.680;5.394;2023-03-13T05:00:43;99796.53;;;11.99;100.00
45523;BME280;31254;51.680;5.394;2023-03-13T05:03:12;99777.78;;;11.96;100.00
45523;BME280;31254;51.680;5.394;2023-03-13T05:05:39;99785.03;;;12.03;100.00
45523;BME280;31254;51.680;5.394;2023-03-13T05:08:06;99758.81;;;11.94;100.00
45523;BME280;31254;51.680;5.394;2023-03-13T05:10:34;99766.88;;;12.11;100.00
45523;BME280;31254;51.680;5.394;2023-03-13T05:13:03;99762.22;;;11.96;100.00
45523;BME280;31254;51.680;5.394;2023-03-13T05:15:30;99750.53;;;12.02;100.00
45523;BME280;31254;51.680;5.394;2023-03-13T05:17:57;99761.03;;;12.14;100.00
45523;BME280;31254;51.680;5.394;2023-03-13T05:20:26;99735.34;;;12.00;100.00
45523;BME280;31254;51.680;5.394;2023-03-13T05:22:52;99746.56;;;12.05;100.00
45523;BME280;31254;51.680;5.394;2023-03-13T05:25:21;99767.06;;;12.24;100.00
45523;BME280;31254;51.680;5.394;2023-03-13T05:27:48;99701.50;;;11.86;100.00
45523;BME280;31254;51.680;5.394;2023-03-13T05:30:17;99523.47;;;10.76;100.00
45523;BME280;31254;51.680;5.394;2023-03-13T05:32:45;99763.13;;;12.27;100.00
45523;BME280;31254;51.680;5.394;2023-03-13T05:35:14;99778.47;;;12.28;100.00
45523;BME280;31254;51.680;5.394;2023-03-13T05:37:41;99758.84;;;12.24;100.00
45523;BME280;31254;51.680;5.394;2023-03-13T05:40:09;99761.69;;;12.31;100.00
45523;BME280;31254;51.680;5.394;2023-03-13T05:42:35;99746.91;;;12.25;100.00
45523;BME280;31254;51.680;5.394;2023-03-13T05:45:05;99761.59;;;12.39;100.00
45523;BME280;31254;51.680;5.394;2023-03-13T05:47:35;99757.84;;;12.40;100.00
45523;BME280;31254;51.680;5.394;2023-03-13T05:50:02;99762.28;;;12.41;100.00
45523;BME280;31254;51.680;5.394;2023-03-13T05:52:31;99763.50;;;12.38;100.00
45523;BME280;31254;51.680;5.394;2023-03-13T05:54:58;99747.06;;;12.38;100.00
45523;BME280;31254;51.680;5.394;2023-03-13T05:57:25;99754.72;;;12.43;100.00
45523;BME280;31254;51.680;5.394;2023-03-13T05:59:53;99729.16;;;12.36;100.00
45523;BME280;31254;51.680;5.394;2023-03-13T06:02:19;99747.63;;;12.49;100.00
45523;BME280;31254;51.680;5.394;2023-03-13T06:04:48;99707.56;;;12.26;99.88
45523;BME280;31254;51.680;5.394;2023-03-13T06:07:15;99748.69;;;12.48;100.00
45523;BME280;31254;51.680;5.394;2023-03-13T06:09:42;99746.59;;;12.50;99.89
45523;BME280;31254;51.680;5.394;2023-03-13T06:12:11;99733.03;;;12.41;99.61
45523;BME280;31254;51.680;5.394;2023-03-13T06:14:38;99757.81;;;12.55;99.80
45523;BME280;31254;51.680;5.394;2023-03-13T06:17:05;99636.88;;;11.93;99.41
45523;BME280;31254;51.680;5.394;2023-03-13T06:19:32;99640.84;;;12.05;99.24
45523;BME280;31254;51.680;5.394;2023-03-13T06:21:59;99748.22;;;12.59;99.30
45523;BME280;31254;51.680;5.394;2023-03-13T06:24:25;99718.59;;;12.48;99.10
45523;BME280;31254;51.680;5.394;2023-03-13T06:26:54;99722.81;;;12.50;98.80
45523;BME280;31254;51.680;5.394;2023-03-13T06:29:22;99724.16;;;12.54;98.74
45523;BME280;31254;51.680;5.394;2023-03-13T06:31:50;99745.56;;;12.66;98.65
45523;BME280;31254;51.680;5.394;2023-03-13T06:34:19;99729.78;;;12.68;98.53
45523;BME280;31254;51.680;5.394;2023-03-13T06:36:46;99740.38;;;12.71;98.22
45523;BME280;31254;51.680;5.394;2023-03-13T06:39:15;99714.06;;;12.55;98.28
45523;BME280;31254;51.680;5.394;2023-03-13T06:41:42;99724.44;;;12.59;98.27
45523;BME280;31254;51.680;5.394;2023-03-13T06:44:08;99741.88;;;12.73;98.02
45523;BME280;31254;51.680;5.394;2023-03-13T06:46:35;99741.19;;;12.71;97.66
45523;BME280;31254;51.680;5.394;2023-03-13T06:49:05;99745.09;;;12.77;97.67
45523;BME280;31254;51.680;5.394;2023-03-13T06:51:34;99749.13;;;12.81;97.55
45523;BME280;31254;51.680;5.394;2023-03-13T06:54:01;99745.34;;;12.82;97.38
45523;BME280;31254;51.680;5.394;2023-03-13T06:56:28;99741.41;;;12.85;97.16
45523;BME280;31254;51.680;5.394;2023-03-13T06:58:55;99728.66;;;12.77;96.93
45523;BME280;31254;51.680;5.394;2023-03-13T07:01:25;99736.84;;;12.92;97.06
45523;BME280;31254;51.680;5.394;2023-03-13T07:03:52;99739.19;;;12.95;96.86
45523;BME280;31254;51.680;5.394;2023-03-13T07:06:19;99727.78;;;12.91;96.51
45523;BME280;31254;51.680;5.394;2023-03-13T07:08:46;99728.16;;;12.88;96.60
45523;BME280;31254;51.680;5.394;2023-03-13T07:11:13;99676.63;;;12.55;96.56
45523;BME280;31254;51.680;5.394;2023-03-13T07:13:42;99733.97;;;13.00;96.21
45523;BME280;31254;51.680;5.394;2023-03-13T07:16:11;99733.78;;;13.02;96.34
45523;BME280;31254;51.680;5.394;2023-03-13T07:18:42;99734.25;;;13.05;96.18
45523;BME280;31254;51.680;5.394;2023-03-13T07:21:26;99730.94;;;13.10;95.81
45523;BME280;31254;51.680;5.394;2023-03-13T07:23:54;99732.84;;;13.09;96.06
45523;BME280;31254;51.680;5.394;2023-03-13T07:26:39;99736.22;;;13.11;95.92
45523;BME280;31254;51.680;5.394;2023-03-13T07:29:27;99728.66;;;13.13;95.70
45523;BME280;31254;51.680;5.394;2023-03-13T07:31:59;99736.09;;;13.20;95.52
45523;BME280;31254;51.680;5.394;2023-03-13T07:34:27;99658.53;;;12.76;94.96
45523;BME280;31254;51.680;5.394;2023-03-13T07:36:57;99747.03;;;13.20;95.29
45523;BME280;31254;51.680;5.394;2023-03-13T07:39:28;99725.66;;;13.08;95.35
45523;BME280;31254;51.680;5.394;2023-03-13T07:41:55;99735.06;;;13.21;95.32
45523;BME280;31254;51.680;5.394;2023-03-13T07:44:30;99727.50;;;13.23;95.31
45523;BME280;31254;51.680;5.394;2023-03-13T07:47:03;99731.94;;;13.24;95.13
45523;BME280;31254;51.680;5.394;2023-03-13T07:49:37;99755.72;;;13.23;95.26
45523;BME280;31254;51.680;5.394;2023-03-13T07:52:10;99679.28;;;12.85;95.16
45523;BME280;31254;51.680;5.394;2023-03-13T07:54:40;99675.91;;;12.83;95.25
45523;BME280;31254;51.680;5.394;2023-03-13T07:57:09;99732.25;;;13.14;95.47
45523;BME280;31254;51.680;5.394;2023-03-13T07:59:35;99744.13;;;13.21;95.44
45523;BME280;31254;51.680;5.394;2023-03-13T08:02:07;99742.22;;;13.22;95.33
45523;BME280;31254;51.680;5.394;2023-03-13T08:04:35;99730.22;;;13.23;95.23
45523;BME280;31254;51.680;5.394;2023-03-13T08:07:02;99749.13;;;13.32;95.03
45523;BME280;31254;51.680;5.394;2023-03-13T08:09:37;99700.88;;;13.16;94.48
45523;BME280;31254;51.680;5.394;2023-03-13T08:12:04;99730.47;;;13.43;94.66
45523;BME280;31254;51.680;5.394;2023-03-13T08:14:34;99696.53;;;13.22;94.81
45523;BME280;31254;51.680;5.394;2023-03-13T08:17:05;99727.75;;;13.43;94.83
45523;BME280;31254;51.680;5.394;2023-03-13T08:19:34;99702.63;;;13.39;94.64
45523;BME280;31254;51.680;5.394;2023-03-13T08:22:01;99712.41;;;13.48;94.52
45523;BME280;31254;51.680;5.394;2023-03-13T08:24:28;99724.88;;;13.51;94.54
45523;BME280;31254;51.680;5.394;2023-03-13T08:26:55;99718.38;;;13.59;94.23
45523;BME280;31254;51.680;5.394;2023-03-13T08:29:21;99730.53;;;13.71;93.98
45523;BME280;31254;51.680;5.394;2023-03-13T08:31:49;99738.94;;;13.69;93.80
45523;BME280;31254;51.680;5.394;2023-03-13T08:34:18;99706.97;;;13.55;93.83
45523;BME280;31254;51.680;5.394;2023-03-13T08:36:47;99728.38;;;13.66;93.82
45523;BME280;31254;51.680;5.394;2023-03-13T08:39:18;99724.53;;;13.61;94.21
45523;BME280;31254;51.680;5.394;2023-03-13T08:41:45;99734.44;;;13.62;94.11
45523;BME280;31254;51.680;5.394;2023-03-13T08:44:14;99717.78;;;13.63;94.13
45523;BME280;31254;51.680;5.394;2023-03-13T08:46:41;99713.56;;;13.61;94.01
45523;BME280;31254;51.680;5.394;2023-03-13T08:49:11;99732.09;;;13.59;94.17
45523;BME280;31254;51.680;5.394;2023-03-13T08:51:43;99740.78;;;13.62;94.37
45523;BME280;31254;51.680;5.394;2023-03-13T08:54:29;99653.28;;;13.89;91.28
45523;BME280;31254;51.680;5.394;2023-03-13T08:56:56;99709.13;;;14.51;90.29
45523;BME280;31254;51.680;5.394;2023-03-13T08:59:28;99706.38;;;14.51;91.39
45523;BME280;31254;51.680;5.394;2023-03-13T09:01:57;99685.31;;;14.58;90.51
45523;BME280;31254;51.680;5.394;2023-03-13T09:04:26;99698.53;;;14.83;89.50
45523;BME280;31254;51.680;5.394;2023-03-13T09:06:55;99676.47;;;15.38;87.01
45523;BME280;31254;51.680;5.394;2023-03-13T09:09:24;99658.31;;;15.97;84.32
45523;BME280;31254;51.680;5.394;2023-03-13T09:11:51;99665.72;;;17.39;79.00
45523;BME280;31254;51.680;5.394;2023-03-13T09:14:17;99663.72;;;18.03;76.09
45523;BME280;31254;51.680;5.394;2023-03-13T09:16:46;99632.94;;;18.43;73.97
45523;BME280;31254;51.680;5.394;2023-03-13T09:19:13;99480.13;;;17.27;74.50
45523;BME280;31254;51.680;5.394;2023-03-13T09:21:43;99652.75;;;17.71;76.75
45523;BME280;31254;51.680;5.394;2023-03-13T09:24:11;99656.38;;;17.72;77.16
45523;BME280;31254;51.680;5.394;2023-03-13T09:26:38;99618.97;;;17.76;76.07
45523;BME280;31254;51.680;5.394;2023-03-13T09:29:14;99632.66;;;17.39;77.44
45523;BME280;31254;51.680;5.394;2023-03-13T09:31:40;99640.47;;;17.17;78.60
45523;BME280;31254;51.680;5.394;2023-03-13T09:34:09;99610.28;;;16.97;78.96
45523;BME280;31254;51.680;5.394;2023-03-13T09:36:38;99601.63;;;17.25;78.21
45523;BME280;31254;51.680;5.394;2023-03-13T09:39:05;99609.28;;;17.67;76.53
45523;BME280;31254;51.680;5.394;2023-03-13T09:41:56;99627.47;;;17.75;76.98
45523;BME280;31254;51.680;5.394;2023-03-13T09:44:31;99627.31;;;17.95;76.31
45523;BME280;31254;51.680;5.394;2023-03-13T09:47:23;99617.91;;;17.77;77.37
45523;BME280;31254;51.680;5.394;2023-03-13T09:50:20;99594.34;;;17.31;76.20
45523;BME280;31254;51.680;5.394;2023-03-13T09:52:47;99577.44;;;17.27;76.86
45523;BME280;31254;51.680;5.394;2023-03-13T09:55:21;99603.19;;;17.40;77.40
45523;BME280;31254;51.680;5.394;2023-03-13T09:57:53;99613.19;;;17.34;77.55
45523;BME280;31254;51.680;5.394;2023-03-13T10:00:28;99605.44;;;17.49;76.91
45523;BME280;31254;51.680;5.394;2023-03-13T10:03:01;99594.28;;;17.38;77.54
45523;BME280;31254;51.680;5.394;2023-03-13T10:05:32;99590.19;;;17.22;78.01
45523;BME280;31254;51.680;5.394;2023-03-13T10:08:31;99528.97;;;16.56;78.82
45523;BME280;31254;51.680;5.394;2023-03-13T10:11:22;99593.19;;;16.81;79.12
45523;BME280;31254;51.680;5.394;2023-03-13T10:14:10;99593.81;;;16.90;78.72
45523;BME280;31254;51.680;5.394;2023-03-13T10:19:37;99586.53;;;17.03;78.29
45523;BME280;31254;51.680;5.394;2023-03-13T10:22:18;99557.72;;;16.98;77.76
45523;BME280;31254;51.680;5.394;2023-03-13T10:25:08;99589.00;;;17.11;77.44
45523;BME280;31254;51.680;5.394;2023-03-13T10:27:47;99592.44;;;17.06;77.09
45523;BME280;31254;51.680;5.394;2023-03-13T10:32:49;99606.03;;;17.01;76.48
45523;BME280;31254;51.680;5.394;2023-03-13T10:35:21;99586.47;;;17.09;75.92
45523;BME280;31254;51.680;5.394;2023-03-13T10:37:47;99569.13;;;17.02;76.17
45523;BME280;31254;51.680;5.394;2023-03-13T10:40:20;99571.28;;;17.00;75.98
45523;BME280;31254;51.680;5.394;2023-03-13T10:42:52;99567.09;;;16.91;76.08
45523;BME280;31254;51.680;5.394;2023-03-13T10:45:22;99559.81;;;17.03;76.12
45523;BME280;31254;51.680;5.394;2023-03-13T10:47:55;99542.72;;;17.20;75.54
45523;BME280;31254;51.680;5.394;2023-03-13T10:50:25;99564.03;;;17.31;74.67
45523;BME280;31254;51.680;5.394;2023-03-13T10:52:53;99523.22;;;17.21;74.73
45523;BME280;31254;51.680;5.394;2023-03-13T10:55:24;99547.44;;;17.38;74.39
45523;BME280;31254;51.680;5.394;2023-03-13T10:58:00;99564.03;;;17.56;73.74
45523;BME280;31254;51.680;5.394;2023-03-13T11:00:41;99526.66;;;17.60;73.26
45523;BME280;31254;51.680;5.394;2023-03-13T11:03:13;99551.69;;;17.59;73.33
45523;BME280;31254;51.680;5.394;2023-03-13T11:05:54;99523.94;;;17.35;73.80
45523;BME280;31254;51.680;5.394;2023-03-13T11:08:24;99557.63;;;17.37;74.24
45523;BME280;31254;51.680;5.394;2023-03-13T11:11:04;99538.34;;;17.37;74.26
45523;BME280;31254;51.680;5.394;2023-03-13T11:13:42;99493.84;;;17.08;74.25
45523;BME280;31254;51.680;5.394;2023-03-13T11:18:46;99538.19;;;17.50;74.33
45523;BME280;31254;51.680;5.394;2023-03-13T11:21:23;99542.88;;;17.68;73.98
45523;BME280;31254;51.680;5.394;2023-03-13T11:23:57;99480.91;;;17.34;73.95
45523;BME280;31254;51.680;5.394;2023-03-13T11:26:34;99518.59;;;17.59;73.65
45523;BME280;31254;51.680;5.394;2023-03-13T11:29:24;99530.72;;;17.58;74.10
45523;BME280;31254;51.680;5.394;2023-03-13T11:32:03;99522.75;;;17.68;73.43
45523;BME280;31254;51.680;5.394;2023-03-13T11:34:42;99516.00;;;17.64;72.85
45523;BME280;31254;51.680;5.394;2023-03-13T11:37:17;99521.38;;;17.77;72.73
45523;BME280;31254;51.680;5.394;2023-03-13T11:48:14;99517.72;;;18.02;70.25
45523;BME280;31254;51.680;5.394;2023-03-13T11:53:35;99490.38;;;17.82;69.24
45523;BME280;31254;51.680;5.394;2023-03-13T11:56:46;99500.53;;;17.81;70.00
45523;BME280;31254;51.680;5.394;2023-03-13T11:59:43;99498.16;;;17.85;69.11
45523;BME280;31254;51.680;5.394;2023-03-13T12:04:48;99489.66;;;17.86;67.45
45523;BME280;31254;51.680;5.394;2023-03-13T12:07:31;99486.13;;;17.79;67.68
45523;BME280;31254;51.680;5.394;2023-03-13T12:10:25;99485.06;;;17.80;68.11
45523;BME280;31254;51.680;5.394;2023-03-13T12:13:06;99451.00;;;17.93;67.24
45523;BME280;31254;51.680;5.394;2023-03-13T12:15:44;99470.72;;;18.08;67.37
45523;BME280;31254;51.680;5.394;2023-03-13T12:18:25;99465.22;;;18.08;67.40
45523;BME280;31254;51.680;5.394;2023-03-13T12:21:25;99458.94;;;18.32;67.40
45523;BME280;31254;51.680;5.394;2023-03-13T12:26:57;99429.53;;;18.25;67.25
45523;BME280;31254;51.680;5.394;2023-03-13T12:32:39;99437.03;;;18.06;67.73
45523;BME280;31254;51.680;5.394;2023-03-13T12:35:27;99434.03;;;18.08;67.76
45523;BME280;31254;51.680;5.394;2023-03-13T12:38:16;99420.56;;;18.00;67.73
45523;BME280;31254;51.680;5.394;2023-03-13T12:49:29;99414.72;;;18.50;64.89
45523;BME280;31254;51.680;5.394;2023-03-13T12:59:57;99397.22;;;18.80;61.67
45523;BME280;31254;51.680;5.394;2023-03-13T13:02:31;99396.88;;;18.76;60.58
45523;BME280;31254;51.680;5.394;2023-03-13T13:05:01;99380.53;;;18.75;60.03
45523;BME280;31254;51.680;5.394;2023-03-13T13:07:32;99396.16;;;18.81;58.92
45523;BME280;31254;51.680;5.394;2023-03-13T13:12:29;99378.25;;;18.72;57.97
45523;BME280;31254;51.680;5.394;2023-03-13T13:22:52;99374.78;;;18.76;55.49
45523;BME280;31254;51.680;5.394;2023-03-13T13:25:32;99372.50;;;18.85;55.93
45523;BME280;31254;51.680;5.394;2023-03-13T13:30:39;99362.03;;;18.75;55.97
45523;BME280;31254;51.680;5.394;2023-03-13T13:35:47;99379.47;;;18.99;55.16
45523;BME280;31254;51.680;5.394;2023-03-13T13:38:37;99355.56;;;18.93;55.71
45523;BME280;31254;51.680;5.394;2023-03-13T13:43:44;99384.88;;;18.94;55.14
45523;BME280;31254;51.680;5.394;2023-03-13T13:46:32;99361.31;;;18.80;55.90
45523;BME280;31254;51.680;5.394;2023-03-13T13:51:33;99372.47;;;18.73;55.17
45523;BME280;31254;51.680;5.394;2023-03-13T13:56:33;99357.72;;;18.68;55.24
45523;BME280;31254;51.680;5.394;2023-03-13T13:59:13;99345.09;;;18.72;55.24
45523;BME280;31254;51.680;5.394;2023-03-13T14:07:54;99283.84;;;18.27;56.09
45523;BME280;31254;51.680;5.394;2023-03-13T14:12:57;99343.41;;;18.59;55.55
45523;BME280;31254;51.680;5.394;2023-03-13T14:15:26;99340.91;;;18.69;55.48
45523;BME280;31254;51.680;5.394;2023-03-13T14:18:19;99336.56;;;18.73;55.67
45523;BME280;31254;51.680;5.394;2023-03-13T14:21:02;99332.63;;;18.69;55.12
45523;BME280;31254;51.680;5.394;2023-03-13T14:23:37;99326.72;;;18.66;54.79
45523;BME280;31254;51.680;5.394;2023-03-13T14:26:23;99323.84;;;18.49;53.78
45523;BME280;31254;51.680;5.394;2023-03-13T14:28:53;99320.22;;;18.36;53.21
45523;BME280;31254;51.680;5.394;2023-03-13T14:33:57;99320.22;;;18.36;54.10
45523;BME280;31254;51.680;5.394;2023-03-13T14:36:30;99322.50;;;18.27;54.74
45523;BME280;31254;51.680;5.394;2023-03-13T14:41:48;99308.56;;;18.22;54.90
45523;BME280;31254;51.680;5.394;2023-03-13T14:44:23;99304.47;;;18.13;55.15
45523;BME280;31254;51.680;5.394;2023-03-13T14:46:56;99279.38;;;18.03;55.18
45523;BME280;31254;51.680;5.394;2023-03-13T14:49:26;99295.38;;;18.24;55.20